Los Angeles, California
Traffic Map
Current Weather Conditions
Los Angeles, California
Clear Haze
Clear
60°
Feels Like: 60°
Wind Chill: 60° Ceiling: Unl
Heat Index: 60° Visibility: 5mi
Dew Point: 57° Wind: 0mph
Humidity: 90% Direction: ° ()
Pressure: 30.01in Gusts: 0mph
Raw Report DataKCQT 300847Z AUTO 00000KT 5SM BR CLR 16/14 A3001 RMK AO2 SLP160 T01560139 58005
Traffic Incident Summary
Active as of:
Severity:
Category:
InformationThere was an issue retrieving the traffic information for this location. Please try a different location or try again shortly.
Advertisements
Track Severe Weather on mobile